sensor_id;sensor_type;location;lat;lon;timestamp;P1;durP1;ratioP1;P2;durP2;ratioP2
55053;SDS011;40954;45.668;18.980;2023-09-12T00:01:05;23.73;;;11.40;;
55053;SDS011;40954;45.668;18.980;2023-09-12T00:03:32;22.15;;;11.15;;
55053;SDS011;40954;45.668;18.980;2023-09-12T00:05:59;17.75;;;10.57;;
55053;SDS011;40954;45.668;18.980;2023-09-12T00:08:25;19.88;;;11.05;;
55053;SDS011;40954;45.668;18.980;2023-09-12T00:11:01;18.63;;;11.68;;
55053;SDS011;40954;45.668;18.980;2023-09-12T00:13:29;21.75;;;11.43;;
55053;SDS011;40954;45.668;18.980;2023-09-12T00:15:55;15.30;;;10.88;;
55053;SDS011;40954;45.668;18.980;2023-09-12T00:18:21;16.85;;;10.85;;
55053;SDS011;40954;45.668;18.980;2023-09-12T00:20:47;19.52;;;10.93;;
55053;SDS011;40954;45.668;18.980;2023-09-12T00:23:13;19.67;;;11.88;;
55053;SDS011;40954;45.668;18.980;2023-09-12T00:25:38;17.63;;;11.52;;
55053;SDS011;40954;45.668;18.980;2023-09-12T00:28:04;23.67;;;11.82;;
55053;SDS011;40954;45.668;18.980;2023-09-12T00:30:30;26.63;;;13.00;;
55053;SDS011;40954;45.668;18.980;2023-09-12T00:32:55;22.33;;;12.93;;
55053;SDS011;40954;45.668;18.980;2023-09-12T00:35:21;21.17;;;12.07;;
55053;SDS011;40954;45.668;18.980;2023-09-12T00:37:48;21.10;;;12.30;;
55053;SDS011;40954;45.668;18.980;2023-09-12T00:40:14;20.92;;;11.25;;
55053;SDS011;40954;45.668;18.980;2023-09-12T00:42:40;21.63;;;13.02;;
55053;SDS011;40954;45.668;18.980;2023-09-12T00:45:06;23.40;;;13.18;;
55053;SDS011;40954;45.668;18.980;2023-09-12T00:47:32;23.73;;;12.25;;
55053;SDS011;40954;45.668;18.980;2023-09-12T00:49:58;19.10;;;12.15;;
55053;SDS011;40954;45.668;18.980;2023-09-12T00:52:25;18.02;;;11.90;;
55053;SDS011;40954;45.668;18.980;2023-09-12T00:54:52;18.23;;;11.40;;
55053;SDS011;40954;45.668;18.980;2023-09-12T00:57:19;18.70;;;11.93;;
55053;SDS011;40954;45.668;18.980;2023-09-12T00:59:47;19.50;;;12.50;;
55053;SDS011;40954;45.668;18.980;2023-09-12T01:02:13;18.67;;;12.25;;
55053;SDS011;40954;45.668;18.980;2023-09-12T01:04:39;20.95;;;12.52;;
55053;SDS011;40954;45.668;18.980;2023-09-12T01:07:06;19.90;;;11.30;;
55053;SDS011;40954;45.668;18.980;2023-09-12T01:09:32;17.73;;;11.95;;
55053;SDS011;40954;45.668;18.980;2023-09-12T01:11:59;21.23;;;11.70;;
55053;SDS011;40954;45.668;18.980;2023-09-12T01:14:27;18.95;;;10.70;;
55053;SDS011;40954;45.668;18.980;2023-09-12T01:16:53;19.27;;;10.77;;
55053;SDS011;40954;45.668;18.980;2023-09-12T01:19:20;22.75;;;10.52;;
55053;SDS011;40954;45.668;18.980;2023-09-12T01:29:32;13.02;;;9.50;;
55053;SDS011;40954;45.668;18.980;2023-09-12T01:31:59;19.25;;;8.98;;
55053;SDS011;40954;45.668;18.980;2023-09-12T01:34:26;14.82;;;9.45;;
55053;SDS011;40954;45.668;18.980;2023-09-12T01:36:52;16.42;;;9.68;;
55053;SDS011;40954;45.668;18.980;2023-09-12T01:39:18;12.40;;;8.60;;
55053;SDS011;40954;45.668;18.980;2023-09-12T01:41:44;16.85;;;8.20;;
55053;SDS011;40954;45.668;18.980;2023-09-12T01:44:11;21.02;;;9.35;;
55053;SDS011;40954;45.668;18.980;2023-09-12T01:46:38;16.02;;;9.75;;
55053;SDS011;40954;45.668;18.980;2023-09-12T01:49:05;16.10;;;8.65;;
55053;SDS011;40954;45.668;18.980;2023-09-12T01:51:31;14.38;;;9.10;;
55053;SDS011;40954;45.668;18.980;2023-09-12T01:53:58;13.75;;;8.43;;
55053;SDS011;40954;45.668;18.980;2023-09-12T01:56:24;15.82;;;8.90;;
55053;SDS011;40954;45.668;18.980;2023-09-12T01:58:51;11.95;;;9.45;;
55053;SDS011;40954;45.668;18.980;2023-09-12T02:01:17;14.93;;;8.77;;
55053;SDS011;40954;45.668;18.980;2023-09-12T02:03:43;16.95;;;9.35;;
55053;SDS011;40954;45.668;18.980;2023-09-12T02:06:09;14.23;;;7.95;;
55053;SDS011;40954;45.668;18.980;2023-09-12T02:08:35;15.55;;;8.57;;
55053;SDS011;40954;45.668;18.980;2023-09-12T02:11:01;18.10;;;9.52;;
55053;SDS011;40954;45.668;18.980;2023-09-12T02:13:27;14.60;;;9.20;;
55053;SDS011;40954;45.668;18.980;2023-09-12T02:16:00;12.88;;;8.20;;
55053;SDS011;40954;45.668;18.980;2023-09-12T02:18:27;14.23;;;9.32;;
55053;SDS011;40954;45.668;18.980;2023-09-12T02:20:53;12.63;;;8.98;;
55053;SDS011;40954;45.668;18.980;2023-09-12T02:23:19;12.48;;;8.80;;
55053;SDS011;40954;45.668;18.980;2023-09-12T02:25:45;15.75;;;9.23;;
55053;SDS011;40954;45.668;18.980;2023-09-12T02:28:11;12.52;;;7.43;;
55053;SDS011;40954;45.668;18.980;2023-09-12T02:30:38;14.32;;;8.68;;
55053;SDS011;40954;45.668;18.980;2023-09-12T02:33:07;11.23;;;8.10;;
55053;SDS011;40954;45.668;18.980;2023-09-12T02:35:33;17.85;;;9.52;;
55053;SDS011;40954;45.668;18.980;2023-09-12T02:37:59;13.68;;;8.32;;
55053;SDS011;40954;45.668;18.980;2023-09-12T02:40:26;15.05;;;9.48;;
55053;SDS011;40954;45.668;18.980;2023-09-12T02:42:52;11.20;;;8.43;;
55053;SDS011;40954;45.668;18.980;2023-09-12T02:45:18;14.02;;;9.05;;
55053;SDS011;40954;45.668;18.980;2023-09-12T02:47:44;13.05;;;8.93;;
55053;SDS011;40954;45.668;18.980;2023-09-12T02:50:11;12.60;;;9.15;;
55053;SDS011;40954;45.668;18.980;2023-09-12T02:52:37;14.82;;;9.73;;
55053;SDS011;40954;45.668;18.980;2023-09-12T02:55:03;14.18;;;9.55;;
55053;SDS011;40954;45.668;18.980;2023-09-12T02:57:29;18.25;;;9.13;;
55053;SDS011;40954;45.668;18.980;2023-09-12T02:59:55;11.13;;;8.13;;
55053;SDS011;40954;45.668;18.980;2023-09-12T03:02:22;11.40;;;8.35;;
55053;SDS011;40954;45.668;18.980;2023-09-12T03:04:48;10.15;;;8.45;;
55053;SDS011;40954;45.668;18.980;2023-09-12T03:07:14;14.40;;;7.72;;
55053;SDS011;40954;45.668;18.980;2023-09-12T03:09:40;12.63;;;7.93;;
55053;SDS011;40954;45.668;18.980;2023-09-12T03:12:06;9.32;;;7.97;;
55053;SDS011;40954;45.668;18.980;2023-09-12T03:14:32;14.48;;;8.82;;
55053;SDS011;40954;45.668;18.980;2023-09-12T03:16:58;14.38;;;8.52;;
55053;SDS011;40954;45.668;18.980;2023-09-12T03:19:24;10.40;;;8.30;;
55053;SDS011;40954;45.668;18.980;2023-09-12T03:21:50;12.65;;;8.38;;
55053;SDS011;40954;45.668;18.980;2023-09-12T03:24:16;8.57;;;7.63;;
55053;SDS011;40954;45.668;18.980;2023-09-12T03:26:43;20.77;;;9.65;;
55053;SDS011;40954;45.668;18.980;2023-09-12T03:29:10;11.02;;;8.82;;
55053;SDS011;40954;45.668;18.980;2023-09-12T03:31:36;13.25;;;8.82;;
55053;SDS011;40954;45.668;18.980;2023-09-12T03:34:02;9.98;;;8.70;;
55053;SDS011;40954;45.668;18.980;2023-09-12T03:36:28;12.43;;;8.60;;
55053;SDS011;40954;45.668;18.980;2023-09-12T03:38:54;9.15;;;6.47;;
55053;SDS011;40954;45.668;18.980;2023-09-12T03:41:20;9.35;;;8.35;;
55053;SDS011;40954;45.668;18.980;2023-09-12T03:43:50;12.85;;;8.63;;
55053;SDS011;40954;45.668;18.980;2023-09-12T03:46:16;12.13;;;8.10;;
55053;SDS011;40954;45.668;18.980;2023-09-12T03:48:42;12.95;;;9.30;;
55053;SDS011;40954;45.668;18.980;2023-09-12T03:51:08;19.05;;;10.50;;
55053;SDS011;40954;45.668;18.980;2023-09-12T03:53:34;14.35;;;9.40;;
55053;SDS011;40954;45.668;18.980;2023-09-12T03:56:00;13.52;;;9.63;;
55053;SDS011;40954;45.668;18.980;2023-09-12T03:58:26;16.15;;;9.45;;
55053;SDS011;40954;45.668;18.980;2023-09-12T04:00:52;17.55;;;9.65;;
55053;SDS011;40954;45.668;18.980;2023-09-12T04:03:17;17.30;;;10.05;;
55053;SDS011;40954;45.668;18.980;2023-09-12T04:05:43;18.45;;;9.88;;
55053;SDS011;40954;45.668;18.980;2023-09-12T04:08:11;15.05;;;10.43;;
55053;SDS011;40954;45.668;18.980;2023-09-12T04:10:36;15.63;;;9.88;;
55053;SDS011;40954;45.668;18.980;2023-09-12T04:13:02;19.98;;;8.80;;
55053;SDS011;40954;45.668;18.980;2023-09-12T04:15:28;10.20;;;8.20;;
55053;SDS011;40954;45.668;18.980;2023-09-12T04:17:54;15.00;;;9.80;;
55053;SDS011;40954;45.668;18.980;2023-09-12T04:20:19;14.50;;;8.95;;
55053;SDS011;40954;45.668;18.980;2023-09-12T04:22:45;14.02;;;9.20;;
55053;SDS011;40954;45.668;18.980;2023-09-12T04:25:11;15.00;;;9.55;;
55053;SDS011;40954;45.668;18.980;2023-09-12T04:27:37;17.80;;;9.88;;
55053;SDS011;40954;45.668;18.980;2023-09-12T04:30:03;22.63;;;10.18;;
55053;SDS011;40954;45.668;18.980;2023-09-12T04:32:29;20.42;;;9.77;;
55053;SDS011;40954;45.668;18.980;2023-09-12T04:34:55;15.77;;;8.88;;
55053;SDS011;40954;45.668;18.980;2023-09-12T04:37:21;11.77;;;8.20;;
55053;SDS011;40954;45.668;18.980;2023-09-12T04:39:47;13.65;;;8.55;;
55053;SDS011;40954;45.668;18.980;2023-09-12T04:42:13;17.30;;;9.05;;
55053;SDS011;40954;45.668;18.980;2023-09-12T04:44:39;14.55;;;8.57;;
55053;SDS011;40954;45.668;18.980;2023-09-12T04:47:06;12.68;;;8.68;;
55053;SDS011;40954;45.668;18.980;2023-09-12T04:49:31;15.30;;;8.93;;
55053;SDS011;40954;45.668;18.980;2023-09-12T04:51:57;11.68;;;9.30;;
55053;SDS011;40954;45.668;18.980;2023-09-12T04:54:23;15.75;;;9.68;;
55053;SDS011;40954;45.668;18.980;2023-09-12T04:56:48;16.05;;;11.10;;
55053;SDS011;40954;45.668;18.980;2023-09-12T04:59:14;16.08;;;10.25;;
55053;SDS011;40954;45.668;18.980;2023-09-12T05:01:40;13.90;;;9.85;;
55053;SDS011;40954;45.668;18.980;2023-09-12T05:04:06;24.60;;;17.23;;
55053;SDS011;40954;45.668;18.980;2023-09-12T05:06:31;19.77;;;15.13;;
55053;SDS011;40954;45.668;18.980;2023-09-12T05:08:57;19.42;;;15.05;;
55053;SDS011;40954;45.668;18.980;2023-09-12T05:11:23;23.95;;;15.50;;
55053;SDS011;40954;45.668;18.980;2023-09-12T05:13:50;20.15;;;12.15;;
55053;SDS011;40954;45.668;18.980;2023-09-12T05:16:16;16.70;;;9.70;;
55053;SDS011;40954;45.668;18.980;2023-09-12T05:18:42;13.73;;;10.25;;
55053;SDS011;40954;45.668;18.980;2023-09-12T05:21:08;24.15;;;13.07;;
55053;SDS011;40954;45.668;18.980;2023-09-12T05:23:34;19.55;;;10.30;;
55053;SDS011;40954;45.668;18.980;2023-09-12T05:26:00;20.50;;;12.38;;
55053;SDS011;40954;45.668;18.980;2023-09-12T05:28:27;21.70;;;11.85;;
55053;SDS011;40954;45.668;18.980;2023-09-12T05:30:54;18.05;;;11.45;;
55053;SDS011;40954;45.668;18.980;2023-09-12T05:33:20;15.57;;;11.40;;
55053;SDS011;40954;45.668;18.980;2023-09-12T05:35:46;18.27;;;11.32;;
55053;SDS011;40954;45.668;18.980;2023-09-12T05:38:12;18.63;;;11.43;;
55053;SDS011;40954;45.668;18.980;2023-09-12T05:40:38;21.92;;;10.85;;
55053;SDS011;40954;45.668;18.980;2023-09-12T05:43:04;29.27;;;12.85;;
55053;SDS011;40954;45.668;18.980;2023-09-12T05:45:30;15.57;;;10.32;;
55053;SDS011;40954;45.668;18.980;2023-09-12T05:47:57;19.73;;;10.68;;
55053;SDS011;40954;45.668;18.980;2023-09-12T05:50:23;18.55;;;10.90;;
55053;SDS011;40954;45.668;18.980;2023-09-12T05:52:49;17.67;;;11.32;;
55053;SDS011;40954;45.668;18.980;2023-09-12T05:55:16;20.75;;;11.65;;
55053;SDS011;40954;45.668;18.980;2023-09-12T05:57:42;19.30;;;11.93;;
55053;SDS011;40954;45.668;18.980;2023-09-12T06:00:09;26.23;;;11.57;;
55053;SDS011;40954;45.668;18.980;2023-09-12T06:02:37;20.00;;;11.88;;
55053;SDS011;40954;45.668;18.980;2023-09-12T06:05:03;21.58;;;11.57;;
55053;SDS011;40954;45.668;18.980;2023-09-12T06:07:29;21.40;;;10.63;;
55053;SDS011;40954;45.668;18.980;2023-09-12T06:09:57;15.93;;;10.20;;
55053;SDS011;40954;45.668;18.980;2023-09-12T06:12:23;19.30;;;9.70;;
55053;SDS011;40954;45.668;18.980;2023-09-12T06:14:49;13.57;;;9.07;;
55053;SDS011;40954;45.668;18.980;2023-09-12T06:17:15;19.23;;;10.90;;
55053;SDS011;40954;45.668;18.980;2023-09-12T06:19:41;18.60;;;10.27;;
55053;SDS011;40954;45.668;18.980;2023-09-12T06:22:07;15.57;;;9.85;;
55053;SDS011;40954;45.668;18.980;2023-09-12T06:24:33;19.08;;;9.88;;
55053;SDS011;40954;45.668;18.980;2023-09-12T06:26:59;17.42;;;8.50;;
55053;SDS011;40954;45.668;18.980;2023-09-12T06:29:25;13.85;;;8.75;;
55053;SDS011;40954;45.668;18.980;2023-09-12T06:31:51;15.68;;;8.70;;
55053;SDS011;40954;45.668;18.980;2023-09-12T06:34:19;19.83;;;9.10;;
55053;SDS011;40954;45.668;18.980;2023-09-12T06:36:45;13.88;;;8.55;;
55053;SDS011;40954;45.668;18.980;2023-09-12T06:39:12;18.58;;;9.52;;
55053;SDS011;40954;45.668;18.980;2023-09-12T06:41:38;11.13;;;7.95;;
55053;SDS011;40954;45.668;18.980;2023-09-12T06:44:04;9.55;;;6.55;;
55053;SDS011;40954;45.668;18.980;2023-09-12T06:46:31;12.05;;;7.35;;
55053;SDS011;40954;45.668;18.980;2023-09-12T06:49:01;12.15;;;7.70;;
55053;SDS011;40954;45.668;18.980;2023-09-12T06:51:27;14.93;;;6.90;;
55053;SDS011;40954;45.668;18.980;2023-09-12T06:53:54;11.65;;;7.28;;
55053;SDS011;40954;45.668;18.980;2023-09-12T06:56:20;16.13;;;7.85;;
55053;SDS011;40954;45.668;18.980;2023-09-12T06:58:47;15.18;;;7.10;;
55053;SDS011;40954;45.668;18.980;2023-09-12T07:01:13;13.63;;;7.32;;
55053;SDS011;40954;45.668;18.980;2023-09-12T07:03:39;17.73;;;8.05;;
55053;SDS011;40954;45.668;18.980;2023-09-12T07:06:05;20.15;;;8.23;;
55053;SDS011;40954;45.668;18.980;2023-09-12T07:08:31;14.50;;;9.13;;
55053;SDS011;40954;45.668;18.980;2023-09-12T07:10:58;16.70;;;8.32;;
55053;SDS011;40954;45.668;18.980;2023-09-12T07:13:30;14.45;;;7.68;;
55053;SDS011;40954;45.668;18.980;2023-09-12T07:15:56;11.38;;;7.60;;
55053;SDS011;40954;45.668;18.980;2023-09-12T07:18:23;15.52;;;9.85;;
55053;SDS011;40954;45.668;18.980;2023-09-12T07:21:01;14.73;;;9.00;;
55053;SDS011;40954;45.668;18.980;2023-09-12T07:23:28;15.25;;;8.38;;
55053;SDS011;40954;45.668;18.980;2023-09-12T07:25:54;15.73;;;6.95;;
55053;SDS011;40954;45.668;18.980;2023-09-12T07:28:22;13.02;;;6.97;;
55053;SDS011;40954;45.668;18.980;2023-09-12T07:30:49;13.50;;;7.55;;
55053;SDS011;40954;45.668;18.980;2023-09-12T07:33:15;10.13;;;7.35;;
55053;SDS011;40954;45.668;18.980;2023-09-12T07:35:41;10.93;;;6.95;;
55053;SDS011;40954;45.668;18.980;2023-09-12T07:38:07;16.50;;;7.68;;
55053;SDS011;40954;45.668;18.980;2023-09-12T07:40:33;11.48;;;6.70;;
55053;SDS011;40954;45.668;18.980;2023-09-12T07:42:59;11.20;;;6.00;;
55053;SDS011;40954;45.668;18.980;2023-09-12T07:45:25;14.70;;;7.47;;
55053;SDS011;40954;45.668;18.980;2023-09-12T07:47:51;13.93;;;6.65;;
55053;SDS011;40954;45.668;18.980;2023-09-12T07:50:17;12.85;;;6.38;;
55053;SDS011;40954;45.668;18.980;2023-09-12T07:52:43;12.95;;;6.10;;
55053;SDS011;40954;45.668;18.980;2023-09-12T07:55:09;12.50;;;6.45;;
55053;SDS011;40954;45.668;18.980;2023-09-12T07:57:35;11.30;;;5.65;;
55053;SDS011;40954;45.668;18.980;2023-09-12T08:00:02;16.45;;;6.53;;
55053;SDS011;40954;45.668;18.980;2023-09-12T08:02:38;6.22;;;5.25;;
55053;SDS011;40954;45.668;18.980;2023-09-12T08:05:04;7.45;;;5.20;;
55053;SDS011;40954;45.668;18.980;2023-09-12T08:07:31;7.68;;;5.65;;
55053;SDS011;40954;45.668;18.980;2023-09-12T08:09:57;14.35;;;4.93;;
55053;SDS011;40954;45.668;18.980;2023-09-12T08:12:24;10.93;;;4.75;;
55053;SDS011;40954;45.668;18.980;2023-09-12T08:14:54;15.82;;;5.45;;
55053;SDS011;40954;45.668;18.980;2023-09-12T08:17:21;10.98;;;4.18;;
55053;SDS011;40954;45.668;18.980;2023-09-12T08:19:47;6.57;;;5.20;;
55053;SDS011;40954;45.668;18.980;2023-09-12T08:22:13;8.85;;;5.05;;
55053;SDS011;40954;45.668;18.980;2023-09-12T08:24:39;6.70;;;4.35;;
55053;SDS011;40954;45.668;18.980;2023-09-12T08:27:05;6.95;;;4.78;;
55053;SDS011;40954;45.668;18.980;2023-09-12T08:29:31;5.60;;;4.63;;
55053;SDS011;40954;45.668;18.980;2023-09-12T08:31:58;8.18;;;4.80;;
55053;SDS011;40954;45.668;18.980;2023-09-12T08:34:24;9.48;;;4.70;;
55053;SDS011;40954;45.668;18.980;2023-09-12T08:36:50;5.95;;;4.28;;
55053;SDS011;40954;45.668;18.980;2023-09-12T08:39:18;5.18;;;4.28;;
55053;SDS011;40954;45.668;18.980;2023-09-12T08:41:51;7.10;;;4.88;;
55053;SDS011;40954;45.668;18.980;2023-09-12T08:44:18;6.97;;;5.13;;
55053;SDS011;40954;45.668;18.980;2023-09-12T08:47:04;8.90;;;5.10;;
55053;SDS011;40954;45.668;18.980;2023-09-12T08:49:31;5.32;;;4.32;;
55053;SDS011;40954;45.668;18.980;2023-09-12T08:51:57;9.55;;;4.72;;
55053;SDS011;40954;45.668;18.980;2023-09-12T08:54:23;12.27;;;4.20;;
55053;SDS011;40954;45.668;18.980;2023-09-12T08:56:49;7.78;;;4.20;;
55053;SDS011;40954;45.668;18.980;2023-09-12T08:59:15;12.70;;;4.38;;
55053;SDS011;40954;45.668;18.980;2023-09-12T09:01:41;11.77;;;5.75;;
55053;SDS011;40954;45.668;18.980;2023-09-12T09:04:08;4.80;;;4.30;;
55053;SDS011;40954;45.668;18.980;2023-09-12T09:06:34;5.32;;;4.50;;
55053;SDS011;40954;45.668;18.980;2023-09-12T09:09:04;6.22;;;4.00;;
55053;SDS011;40954;45.668;18.980;2023-09-12T09:11:33;6.90;;;4.13;;
55053;SDS011;40954;45.668;18.980;2023-09-12T09:14:00;8.02;;;3.60;;
55053;SDS011;40954;45.668;18.980;2023-09-12T09:16:28;9.68;;;4.28;;
55053;SDS011;40954;45.668;18.980;2023-09-12T09:19:03;11.55;;;4.80;;
55053;SDS011;40954;45.668;18.980;2023-09-12T09:21:35;10.32;;;4.30;;
55053;SDS011;40954;45.668;18.980;2023-09-12T09:24:07;6.22;;;3.70;;
55053;SDS011;40954;45.668;18.980;2023-09-12T09:26:41;6.35;;;4.05;;
55053;SDS011;40954;45.668;18.980;2023-09-12T09:29:08;7.43;;;5.00;;
55053;SDS011;40954;45.668;18.980;2023-09-12T09:31:34;5.30;;;3.92;;
55053;SDS011;40954;45.668;18.980;2023-09-12T09:34:01;6.45;;;4.57;;
55053;SDS011;40954;45.668;18.980;2023-09-12T09:36:27;10.00;;;4.30;;
55053;SDS011;40954;45.668;18.980;2023-09-12T09:38:56;6.28;;;4.10;;
55053;SDS011;40954;45.668;18.980;2023-09-12T09:41:24;8.65;;;4.90;;
55053;SDS011;40954;45.668;18.980;2023-09-12T09:43:51;6.57;;;4.03;;
55053;SDS011;40954;45.668;18.980;2023-09-12T09:46:17;7.65;;;4.30;;
55053;SDS011;40954;45.668;18.980;2023-09-12T09:48:50;7.25;;;3.83;;
55053;SDS011;40954;45.668;18.980;2023-09-12T09:51:16;10.18;;;4.75;;
55053;SDS011;40954;45.668;18.980;2023-09-12T09:53:43;7.45;;;4.25;;
55053;SDS011;40954;45.668;18.980;2023-09-12T09:58:36;7.70;;;3.78;;
55053;SDS011;40954;45.668;18.980;2023-09-12T10:01:06;4.13;;;3.60;;
55053;SDS011;40954;45.668;18.980;2023-09-12T10:03:36;5.00;;;3.78;;
55053;SDS011;40954;45.668;18.980;2023-09-12T10:06:02;5.13;;;3.60;;
55053;SDS011;40954;45.668;18.980;2023-09-12T10:08:31;6.07;;;3.75;;
55053;SDS011;40954;45.668;18.980;2023-09-12T10:10:57;5.53;;;4.07;;
55053;SDS011;40954;45.668;18.980;2023-09-12T10:13:24;5.53;;;3.83;;
55053;SDS011;40954;45.668;18.980;2023-09-12T10:15:56;5.50;;;3.35;;
55053;SDS011;40954;45.668;18.980;2023-09-12T10:18:22;6.85;;;3.60;;
55053;SDS011;40954;45.668;18.980;2023-09-12T10:21:04;7.25;;;3.88;;
55053;SDS011;40954;45.668;18.980;2023-09-12T10:23:32;6.32;;;4.50;;
55053;SDS011;40954;45.668;18.980;2023-09-12T10:26:02;9.43;;;3.83;;
55053;SDS011;40954;45.668;18.980;2023-09-12T10:28:28;5.30;;;3.70;;
55053;SDS011;40954;45.668;18.980;2023-09-12T10:30:54;4.55;;;3.60;;
55053;SDS011;40954;45.668;18.980;2023-09-12T10:33:23;7.43;;;3.72;;
55053;SDS011;40954;45.668;18.980;2023-09-12T10:35:50;7.55;;;3.65;;
55053;SDS011;40954;45.668;18.980;2023-09-12T10:38:17;3.97;;;3.25;;
55053;SDS011;40954;45.668;18.980;2023-09-12T10:40:46;10.93;;;3.92;;
55053;SDS011;40954;45.668;18.980;2023-09-12T10:43:13;7.57;;;4.28;;
55053;SDS011;40954;45.668;18.980;2023-09-12T10:45:40;8.93;;;4.13;;
55053;SDS011;40954;45.668;18.980;2023-09-12T10:48:06;4.93;;;3.67;;
55053;SDS011;40954;45.668;18.980;2023-09-12T10:50:35;4.35;;;3.30;;
55053;SDS011;40954;45.668;18.980;2023-09-12T10:53:10;6.90;;;3.92;;
55053;SDS011;40954;45.668;18.980;2023-09-12T10:55:36;5.32;;;3.90;;
55053;SDS011;40954;45.668;18.980;2023-09-12T10:58:03;6.15;;;3.95;;
55053;SDS011;40954;45.668;18.980;2023-09-12T11:00:30;7.20;;;4.13;;
55053;SDS011;40954;45.668;18.980;2023-09-12T11:03:44;9.05;;;3.65;;
55053;SDS011;40954;45.668;18.980;2023-09-12T11:05:54;8.45;;;3.95;;
55053;SDS011;40954;45.668;18.980;2023-09-12T11:08:21;3.60;;;3.30;;
55053;SDS011;40954;45.668;18.980;2023-09-12T11:13:47;8.90;;;3.65;;
55053;SDS011;40954;45.668;18.980;2023-09-12T11:16:28;9.60;;;4.43;;
55053;SDS011;40954;45.668;18.980;2023-09-12T11:21:45;4.65;;;3.83;;
55053;SDS011;40954;45.668;18.980;2023-09-12T11:24:15;7.68;;;4.03;;
55053;SDS011;40954;45.668;18.980;2023-09-12T11:26:58;5.47;;;3.92;;
55053;SDS011;40954;45.668;18.980;2023-09-12T11:29:35;5.97;;;3.33;;
55053;SDS011;40954;45.668;18.980;2023-09-12T11:32:02;4.20;;;3.70;;
55053;SDS011;40954;45.668;18.980;2023-09-12T11:34:29;8.40;;;4.18;;
55053;SDS011;40954;45.668;18.980;2023-09-12T11:37:01;6.18;;;3.53;;
55053;SDS011;40954;45.668;18.980;2023-09-12T11:39:30;6.05;;;3.50;;
55053;SDS011;40954;45.668;18.980;2023-09-12T11:41:58;5.15;;;3.63;;
55053;SDS011;40954;45.668;18.980;2023-09-12T11:44:25;4.53;;;3.45;;
55053;SDS011;40954;45.668;18.980;2023-09-12T11:46:51;5.53;;;3.40;;
55053;SDS011;40954;45.668;18.980;2023-09-12T11:49:18;8.45;;;4.03;;
55053;SDS011;40954;45.668;18.980;2023-09-12T11:51:51;5.55;;;3.30;;
55053;SDS011;40954;45.668;18.980;2023-09-12T11:54:19;4.88;;;3.22;;
55053;SDS011;40954;45.668;18.980;2023-09-12T11:56:49;5.70;;;3.63;;
55053;SDS011;40954;45.668;18.980;2023-09-12T11:59:31;10.60;;;3.97;;
55053;SDS011;40954;45.668;18.980;2023-09-12T12:01:57;10.98;;;4.10;;
55053;SDS011;40954;45.668;18.980;2023-09-12T12:04:23;9.85;;;4.13;;
55053;SDS011;40954;45.668;18.980;2023-09-12T12:06:50;10.73;;;3.75;;
55053;SDS011;40954;45.668;18.980;2023-09-12T12:09:17;9.63;;;3.53;;
55053;SDS011;40954;45.668;18.980;2023-09-12T12:11:44;8.88;;;3.72;;
55053;SDS011;40954;45.668;18.980;2023-09-12T12:16:42;7.78;;;3.95;;
55053;SDS011;40954;45.668;18.980;2023-09-12T12:19:09;8.65;;;3.83;;
55053;SDS011;40954;45.668;18.980;2023-09-12T12:21:37;8.23;;;3.92;;
55053;SDS011;40954;45.668;18.980;2023-09-12T12:24:04;5.97;;;3.63;;
55053;SDS011;40954;45.668;18.980;2023-09-12T12:26:32;8.60;;;4.07;;
55053;SDS011;40954;45.668;18.980;2023-09-12T12:28:59;10.80;;;4.22;;
55053;SDS011;40954;45.668;18.980;2023-09-12T12:31:27;7.88;;;3.75;;
55053;SDS011;40954;45.668;18.980;2023-09-12T12:33:53;9.23;;;4.10;;
55053;SDS011;40954;45.668;18.980;2023-09-12T12:36:19;14.02;;;3.60;;
55053;SDS011;40954;45.668;18.980;2023-09-12T12:38:46;12.02;;;3.70;;
55053;SDS011;40954;45.668;18.980;2023-09-12T12:41:13;14.88;;;4.60;;
55053;SDS011;40954;45.668;18.980;2023-09-12T12:43:40;10.95;;;3.95;;
55053;SDS011;40954;45.668;18.980;2023-09-12T12:46:09;8.23;;;4.03;;
55053;SDS011;40954;45.668;18.980;2023-09-12T12:48:37;10.73;;;4.25;;
55053;SDS011;40954;45.668;18.980;2023-09-12T12:51:12;10.48;;;3.83;;
55053;SDS011;40954;45.668;18.980;2023-09-12T12:53:44;5.30;;;3.65;;
55053;SDS011;40954;45.668;18.980;2023-09-12T12:56:12;10.88;;;4.57;;
55053;SDS011;40954;45.668;18.980;2023-09-12T12:58:44;11.00;;;3.30;;
55053;SDS011;40954;45.668;18.980;2023-09-12T13:01:11;8.40;;;3.78;;
55053;SDS011;40954;45.668;18.980;2023-09-12T13:03:37;9.98;;;4.13;;
55053;SDS011;40954;45.668;18.980;2023-09-12T13:06:02;8.63;;;4.00;;
55053;SDS011;40954;45.668;18.980;2023-09-12T13:08:28;9.95;;;3.80;;
55053;SDS011;40954;45.668;18.980;2023-09-12T13:10:54;9.13;;;3.88;;
55053;SDS011;40954;45.668;18.980;2023-09-12T13:13:20;7.18;;;3.60;;
55053;SDS011;40954;45.668;18.980;2023-09-12T13:15:46;12.48;;;3.83;;
55053;SDS011;40954;45.668;18.980;2023-09-12T13:18:11;9.30;;;4.10;;
55053;SDS011;40954;45.668;18.980;2023-09-12T13:20:37;8.10;;;3.53;;
55053;SDS011;40954;45.668;18.980;2023-09-12T13:23:03;5.88;;;3.72;;
55053;SDS011;40954;45.668;18.980;2023-09-12T13:25:28;7.72;;;3.88;;
55053;SDS011;40954;45.668;18.980;2023-09-12T13:27:54;12.57;;;3.95;;
55053;SDS011;40954;45.668;18.980;2023-09-12T13:30:20;6.13;;;3.83;;
55053;SDS011;40954;45.668;18.980;2023-09-12T13:32:45;6.65;;;3.42;;
55053;SDS011;40954;45.668;18.980;2023-09-12T13:35:11;5.95;;;3.67;;
55053;SDS011;40954;45.668;18.980;2023-09-12T13:37:37;5.57;;;3.30;;
55053;SDS011;40954;45.668;18.980;2023-09-12T13:40:03;6.43;;;3.50;;
55053;SDS011;40954;45.668;18.980;2023-09-12T13:42:31;5.60;;;3.35;;
55053;SDS011;40954;45.668;18.980;2023-09-12T13:44:57;7.32;;;3.60;;
55053;SDS011;40954;45.668;18.980;2023-09-12T13:47:23;6.38;;;3.58;;
55053;SDS011;40954;45.668;18.980;2023-09-12T13:49:50;10.43;;;3.75;;
55053;SDS011;40954;45.668;18.980;2023-09-12T13:52:22;6.20;;;3.60;;
55053;SDS011;40954;45.668;18.980;2023-09-12T13:54:47;6.15;;;3.67;;
55053;SDS011;40954;45.668;18.980;2023-09-12T13:57:15;5.65;;;3.90;;
55053;SDS011;40954;45.668;18.980;2023-09-12T13:59:41;10.38;;;3.90;;
55053;SDS011;40954;45.668;18.980;2023-09-12T14:02:07;8.85;;;3.40;;
55053;SDS011;40954;45.668;18.980;2023-09-12T14:04:32;4.90;;;3.15;;
55053;SDS011;40954;45.668;18.980;2023-09-12T14:06:58;5.40;;;3.88;;
55053;SDS011;40954;45.668;18.980;2023-09-12T14:09:24;7.03;;;3.55;;
55053;SDS011;40954;45.668;18.980;2023-09-12T14:11:50;8.15;;;3.83;;
55053;SDS011;40954;45.668;18.980;2023-09-12T14:14:15;7.55;;;3.50;;
55053;SDS011;40954;45.668;18.980;2023-09-12T14:16:42;7.13;;;3.58;;
55053;SDS011;40954;45.668;18.980;2023-09-12T14:19:09;6.00;;;3.22;;
55053;SDS011;40954;45.668;18.980;2023-09-12T14:21:35;9.00;;;3.55;;
55053;SDS011;40954;45.668;18.980;2023-09-12T14:24:01;13.68;;;3.47;;
55053;SDS011;40954;45.668;18.980;2023-09-12T14:26:27;4.45;;;3.40;;
55053;SDS011;40954;45.668;18.980;2023-09-12T14:28:52;6.18;;;3.25;;
55053;SDS011;40954;45.668;18.980;2023-09-12T14:31:20;5.47;;;3.33;;
55053;SDS011;40954;45.668;18.980;2023-09-12T14:33:48;11.82;;;4.05;;
55053;SDS011;40954;45.668;18.980;2023-09-12T14:36:14;6.38;;;3.47;;
55053;SDS011;40954;45.668;18.980;2023-09-12T14:38:40;7.57;;;3.75;;
55053;SDS011;40954;45.668;18.980;2023-09-12T14:41:05;5.63;;;3.55;;